Championnats de Nationale 2 d'été

Interrégionale

MULHOUSE

Du Jeudi 07 Juillet 2016 au Dimanche 10 Juillet 2016

Bassin de 50m

50 Brasse Dames

Séries

Nom Année Club Pays Temps Points Niv.
1 STUDER Camille 2000 THANN OLYMPIC N FRA 0:34:40 1218
2 MALLET Camille 2001 AMIENS METROPOLE NAT. FRA 0:34:70 1203
3 COLLOT Lilou 2002 P.V GRANDVILLIERS NATATION FRA 0:34:84 1196
4 FOULQUIER Jodie 1998 AMIENS METROPOLE NAT. FRA 0:35:27 1175
5 GRANDJEAN Juline 2001 TROYES ON FRA 0:35:38 1169
6 RAMBUR Alizé 1995 GRAVELINES NATATION FRA 0:35:53 1162
7 BRUZZO Aurore 2000 SENS NATATION FRA 0:35:57 1160
8 VINOT Lucie 1998 ASPTT NANCY FRA 0:35:90 1144
9 NICOLOSO Salomé 2001 SR CERNAY FRA 0:35:96 1141
10 LAJOIE Sybille 1998 REIMS NATATION 89 FRA 0:36:04 1137
11 JOFFROY Amandine 2000 CN SÉZANNE FRA 0:36:09 1135
12 LINDAUER Clémence 2002 ERSTEIN AQUATIC CLUB FRA 0:36:29 1125
13 VIENNET Blanche 2001 TCN CHAMPIGNEULLES FRA 0:36:32 1124
14 BIGOT Mélanie 2001 ALLIANCE DIJON NATATION FRA 0:36:39 1120
15 TAVERNIER Manon 1999 CN CHALON-SUR-SAONE FRA 0:36:40 1120
16 FOURNERET Julie 2001 CN CHALON-SUR-SAONE FRA 0:36:44 1118
17 HENRY Agathe 2000 ALLIANCE DIJON NATATION FRA 0:36:49 1116
18 BASTIEN Lola 2002 SC LANEUVEVILLE FRA 0:36:50 1115
19 GIORDANELLA Lilou 2002 ALLIANCE DIJON NATATION FRA 0:36:60 1110
20 LINDAUER Emma 2003 ERSTEIN AQUATIC CLUB FRA 0:36:61 1110
21 HOMEL Léna 1999 SC NATATION ABBEVILLE FRA 0:36:62 1109
22 BEE Aure 2000 SN METZ FRA 0:36:67 1107
23 BERLANCOURT Cecile 2001 ALLIANCE DIJON NATATION FRA 0:36:74 1104
24 VAUDOIS Chloé 1998 SN METZ FRA 0:36:78 1102
25 LAGNEAU Angélina 2000 CN FOURMIES FRA 0:36:80 1101
26 CARNEZ Oceane 2002 CN DIVION FRA 0:36:95 1094
27 PEYRAUT Emma 2002 A.S.M BELFORT NATATION FRA 0:37:07 1088
28 LARUE Chrystal 2000 CN VOUZIERS FRA 0:37:08 1087
29 DEVILLARD Léna 2001 CN NEUFCHÂTEAU FRA 0:37:08 1087
30 POINTET Jeanne 2001 NATATION VESOUL-NOIDANS FRA 0:37:10 1086
31 THIARD Ameline 1999 REIMS NATATION 89 FRA 0:37:15 1084
32 SANTAMARIA Sonia 1996 MIGENNES NATATION FRA 0:37:23 1080
33 PAGANELLI Sarah 2000 USB LONGWY NATATION FRA 0:37:38 1073
34 GERARD Perrine 2001 SR COLMAR FRA 0:37:41 1072
35 JOLY Cloe 2002 REIMS CHAMPAGNE NATATION FRA 0:37:48 1069
36 NOTEBAERT Elsa 2001 SN LENS FRA 0:37:52 1067
37 BERNARDOT Celia 1999 TROYES ON FRA 0:37:57 1064
38 DELAHAYE Valentine 2002 AAE PÉRONNE FRA 0:37:67 1060
39 LE GOFF Roxane 2001 SENS NATATION FRA 0:37:77 1055
40 VANDEWALLE Lea 2002 CN CAMBRAI FRA 0:38:06 1042
41 GEORGES Delphine 2002 LILLE UC NATATION FRA 0:38:08 1041
42 BONNOT Leslie 2002 MONTCEAU ON FRA 0:38:13 1038
43 ROCHE-MATHON Leah 2001 RACING CLUB ARRAS FRA 0:38:14 1038
44 GAUTHIER-GENSOUL Candice 2002 NEPTUNE AQUA CLUB VERTUS FRA 0:38:23 1034
45 TOUSSIROT Émilie 2001 AAE PÉRONNE FRA 0:38:27 1032
46 AKSAS Inès 2000 CHARLEVILLE-MÉZIÈRES NATATION FRA 0:38:46 1023
47 GADY Manon 2001 TCN CHAMPIGNEULLES FRA 0:38:48 1022
48 QUINT Chloé 2002 AMIENS METROPOLE NAT. FRA 0:38:50 1021
49 DUCHEMIN Eléonore 2001 CN SÉZANNE FRA 0:38:55 1019
50 MOREAUX Estrella 2001 CN SÉZANNE FRA 0:38:62 1016
51 LABOURE Manon 2002 ALLIANCE DIJON NATATION FRA 0:38:72 1011
52 EGMANN Manon 2002 A.N.S D'ILLFURTH FRA 0:38:73 1011
53 LAKOMY Christiana 2002 VAL DE GRAY NATATION FRA 0:38:80 1007
54 JACQUES Ariane 2002 SC THIONVILLE FRA 0:38:92 1002
55 GRAS Blandine 2001 CN DIVION FRA 0:39:03 997
56 VAN GINDERACHTER Justine 1998 STADE BÉTHUNE PÉLICAN CLUB FRA 0:39:06 996
57 ORIGER Marie 2002 USB LONGWY NATATION FRA 0:39:09 994
58 GUIGON Salome 2002 A.S MONTBELIARD NATATION FRA 0:39:28 986
59 HARDY Océane 2001 AMIENS METROPOLE NAT. FRA 0:39:49 976
60 CUNY Montaine 2002 ASPTT NANCY FRA 0:39:60 971
61 BIGOT Clémence 2001 AMIENS METROPOLE NAT. FRA 0:39:67 968
62 BERTRAND Laureane 2002 CN VOUZIERS FRA 0:39:68 968
63 BROUTIN Anne-Cecile 2001 SR COLMAR FRA 0:40:02 953
64 MEGHEZ Mathilde 2003 CS VITTEL FRA 0:40:70 923
65 FILLIOUX Félicie 2001 AC MOLSHEIM MUTZIG FRA 0:40:81 918
66 LENTE Valentine 2001 SC NATATION ABBEVILLE FRA - Disq.
67 FLORENT Lou 2001 MOREUIL NATATION FRA - Disq.
68 DEPARIS Camille 2000 SC LANEUVEVILLE FRA - Disq.

Finale A

Nom Année Club Pays Temps Points Niv.
1 MALLET Camille 2001 AMIENS METROPOLE NAT. FRA 0:34:66 1205
2 STUDER Camille 2000 THANN OLYMPIC N FRA 0:34:67 1205
3 COLLOT Lilou 2002 P.V GRANDVILLIERS NATATION FRA 0:35:10 1183
4 GRANDJEAN Juline 2001 TROYES ON FRA 0:35:20 1178
5 RAMBUR Alizé 1995 GRAVELINES NATATION FRA 0:35:61 1158
6 VINOT Lucie 1998 ASPTT NANCY FRA 0:35:80 1149
7 NICOLOSO Salomé 2001 SR CERNAY FRA 0:36:18 1130
8 BRUZZO Aurore 2000 SENS NATATION FRA 0:36:88 1097

Finale B

Nom Année Club Pays Temps Points Niv.
1 JOFFROY Amandine 2000 CN SÉZANNE FRA 0:35:69 1154
2 HENRY Agathe 2000 ALLIANCE DIJON NATATION FRA 0:35:72 1153
3 BIGOT Mélanie 2001 ALLIANCE DIJON NATATION FRA 0:36:06 1136
4 LAJOIE Sybille 1998 REIMS NATATION 89 FRA 0:36:10 1134
5 VIENNET Blanche 2001 TCN CHAMPIGNEULLES FRA 0:36:51 1115
6 FOURNERET Julie 2001 CN CHALON-SUR-SAONE FRA 0:36:53 1114
7 LINDAUER Clémence 2002 ERSTEIN AQUATIC CLUB FRA 0:36:64 1108
8 TAVERNIER Manon 1999 CN CHALON-SUR-SAONE FRA 0:37:46 1069

Finale C

Nom Année Club Pays Temps Points Niv.
1 BERLANCOURT Cecile 2001 ALLIANCE DIJON NATATION FRA 0:36:48 1116
2 GERARD Perrine 2001 SR COLMAR FRA 0:36:67 1107
3 POINTET Jeanne 2001 NATATION VESOUL-NOIDANS FRA 0:36:71 1105
4 DEVILLARD Léna 2001 CN NEUFCHÂTEAU FRA 0:37:09 1087
5 CARNEZ Oceane 2002 CN DIVION FRA 0:37:18 1083
6 GIORDANELLA Lilou 2002 ALLIANCE DIJON NATATION FRA 0:37:33 1076
7 LINDAUER Emma 2003 ERSTEIN AQUATIC CLUB FRA 0:37:42 1071
8 PEYRAUT Emma 2002 A.S.M BELFORT NATATION FRA 0:37:69 1059